Welcome to Des Moines Iowa Weather. I am an independent private personal weather station on the Northwest Side of Des Moines, Iowa. Just East of Windsor Heights and just West of Glendale . This site is also mobile friendly.

There are no active watches, warnings or advisories


Visit our other weather sites:

Historical Data

Weather Station Setup



Weather Underground History page Text

Daily Summary for February 8, 2018 Units:  Both    English   Metric
« Previous Day
Next Day »
Daily Weekly Monthly Yearly Custom
  High: Low: Average:
Temperature: 24.2 °F /  -4.3 °C 13.3 °F /  -10.4 °C 19 °F /  -7.2 °C
Dew Point: 19.0 °F /  -7.2 °C 9.0 °F /  -12.8 °C 15.3 °F /  -9.3 °C
Humidity: 89 % 73 % 85 %
Wind Speed: 4.0 mph /  6.4 km/h - 1.3 mph /  2.1 km/h
Wind Gust: 9.0 mph /  14.5 km/h - -
Wind:- - ENE
Pressure: 30.48 in /  1032.1 hPa 30.18 in /  1021.9 hPa -
Precipitation: 0.01 in /  0.25 mm    
Historical Graphs
 
 
Tabular Data for February 8, 2018
Time Temperature Dew Point Pressure Wind Wind Speed Wind Gust Humidity Rainfall Rate (Hourly)
00:02 13.3 °F /  -10.4 °C 9.0 °F /  -12.8 °C 30.48 in /  1032.1 hPa Calm   1.0 mph /  1.6 km/h 84 % 0.00 in /  0 mm
00:17 13.4 °F /  -10.3 °C 10.0 °F /  -12.2 °C 30.47 in /  1031.7 hPa Calm   1.0 mph /  1.6 km/h 85 % 0.00 in /  0 mm
00:32 13.4 °F /  -10.3 °C 10.0 °F /  -12.2 °C 30.46 in /  1031.4 hPa Calm   2.0 mph /  3.2 km/h 85 % 0.00 in /  0 mm
00:47 13.6 °F /  -10.2 °C 10.0 °F /  -12.2 °C 30.44 in /  1030.7 hPa Calm   3.0 mph /  4.8 km/h 86 % 0.00 in /  0 mm
01:02 13.7 °F /  -10.2 °C 10.0 °F /  -12.2 °C 30.44 in /  1030.7 hPa NNE 1.0 mph /  1.6 km/h 3.0 mph /  4.8 km/h 86 % 0.00 in /  0 mm
01:17 13.9 °F /  -10.1 °C 11.0 °F /  -11.7 °C 30.44 in /  1030.7 hPa NNE 2.0 mph /  3.2 km/h 3.0 mph /  4.8 km/h 87 % 0.00 in /  0 mm
01:33 14.1 °F /  -9.9 °C 11.0 °F /  -11.7 °C 30.44 in /  1030.7 hPa NNE 1.0 mph /  1.6 km/h 2.0 mph /  3.2 km/h 87 % 0.00 in /  0 mm
01:48 14.3 °F /  -9.8 °C 11.0 °F /  -11.7 °C 30.44 in /  1030.7 hPa NNE 2.0 mph /  3.2 km/h 3.0 mph /  4.8 km/h 87 % 0.00 in /  0 mm
02:03 14.4 °F /  -9.8 °C 11.0 °F /  -11.7 °C 30.44 in /  1030.7 hPa Calm   3.0 mph /  4.8 km/h 87 % 0.00 in /  0 mm
02:18 14.5 °F /  -9.7 °C 11.0 °F /  -11.7 °C 30.44 in /  1030.7 hPa Calm   2.0 mph /  3.2 km/h 87 % 0.00 in /  0 mm
02:33 14.6 °F /  -9.7 °C 11.0 °F /  -11.7 °C 30.44 in /  1030.7 hPa Calm   2.0 mph /  3.2 km/h 87 % 0.00 in /  0 mm
02:53 14.8 °F /  -9.6 °C 12.0 °F /  -11.1 °C 30.43 in /  1030.4 hPa North 1.0 mph /  1.6 km/h 3.0 mph /  4.8 km/h 87 % 0.00 in /  0 mm
03:03 14.9 °F /  -9.5 °C 12.0 °F /  -11.1 °C 30.43 in /  1030.4 hPa Calm   3.0 mph /  4.8 km/h 87 % 0.00 in /  0 mm
03:18 15.0 °F /  -9.4 °C 12.0 °F /  -11.1 °C 30.42 in /  1030 hPa Calm   2.0 mph /  3.2 km/h 87 % 0.00 in /  0 mm
03:33 15.2 °F /  -9.3 °C 12.0 °F /  -11.1 °C 30.41 in /  1029.7 hPa North 3.0 mph /  4.8 km/h 3.0 mph /  4.8 km/h 87 % 0.00 in /  0 mm
03:48 15.4 °F /  -9.2 °C 12.0 °F /  -11.1 °C 30.43 in /  1030.4 hPa Calm   1.0 mph /  1.6 km/h 87 % 0.00 in /  0 mm
04:03 15.5 °F /  -9.2 °C 12.0 °F /  -11.1 °C 30.42 in /  1030 hPa Calm     87 % 0.00 in /  0 mm
04:18 15.6 °F /  -9.1 °C 12.0 °F /  -11.1 °C 30.41 in /  1029.7 hPa Calm   2.0 mph /  3.2 km/h 87 % 0.00 in /  0 mm
04:33 15.8 °F /  -9 °C 13.0 °F /  -10.6 °C 30.41 in /  1029.7 hPa Calm   4.0 mph /  6.4 km/h 87 % 0.00 in /  0 mm
04:48 15.9 °F /  -8.9 °C 13.0 °F /  -10.6 °C 30.41 in /  1029.7 hPa Calm   1.0 mph /  1.6 km/h 87 % 0.00 in /  0 mm
05:03 16.0 °F /  -8.9 °C 13.0 °F /  -10.6 °C 30.42 in /  1030 hPa Calm   2.0 mph /  3.2 km/h 87 % 0.00 in /  0 mm
05:18 16.2 °F /  -8.8 °C 13.0 °F /  -10.6 °C 30.42 in /  1030 hPa Calm   1.0 mph /  1.6 km/h 87 % 0.00 in /  0 mm
05:33 16.3 °F /  -8.7 °C 13.0 °F /  -10.6 °C 30.43 in /  1030.4 hPa Calm   2.0 mph /  3.2 km/h 87 % 0.00 in /  0 mm
05:48 16.4 °F /  -8.7 °C 13.0 °F /  -10.6 °C 30.43 in /  1030.4 hPa Calm   2.0 mph /  3.2 km/h 87 % 0.00 in /  0 mm
06:03 16.4 °F /  -8.7 °C 13.0 °F /  -10.6 °C 30.42 in /  1030 hPa Calm   2.0 mph /  3.2 km/h 87 % 0.00 in /  0 mm
06:18 16.5 °F /  -8.6 °C 13.0 °F /  -10.6 °C 30.41 in /  1029.7 hPa Calm     87 % 0.00 in /  0 mm
06:33 16.5 °F /  -8.6 °C 13.0 °F /  -10.6 °C 30.43 in /  1030.4 hPa Calm   2.0 mph /  3.2 km/h 87 % 0.00 in /  0 mm
06:48 16.5 °F /  -8.6 °C 13.0 °F /  -10.6 °C 30.43 in /  1030.4 hPa NNE 1.0 mph /  1.6 km/h 2.0 mph /  3.2 km/h 87 % 0.00 in /  0 mm
07:03 16.4 °F /  -8.7 °C 13.0 °F /  -10.6 °C 30.43 in /  1030.4 hPa Calm   2.0 mph /  3.2 km/h 87 % 0.00 in /  0 mm
07:18 16.3 °F /  -8.7 °C 13.0 °F /  -10.6 °C 30.43 in /  1030.4 hPa Calm   2.0 mph /  3.2 km/h 87 % 0.00 in /  0 mm
07:33 16.1 °F /  -8.8 °C 13.0 °F /  -10.6 °C 30.43 in /  1030.4 hPa Calm   2.0 mph /  3.2 km/h 87 % 0.00 in /  0 mm
07:48 16.0 °F /  -8.9 °C 13.0 °F /  -10.6 °C 30.43 in /  1030.4 hPa Calm   2.0 mph /  3.2 km/h 87 % 0.00 in /  0 mm
08:03 16.1 °F /  -8.8 °C 13.0 °F /  -10.6 °C 30.43 in /  1030.4 hPa Calm   2.0 mph /  3.2 km/h 87 % 0.00 in /  0 mm
08:18 16.3 °F /  -8.7 °C 13.0 °F /  -10.6 °C 30.43 in /  1030.4 hPa Calm   3.0 mph /  4.8 km/h 87 % 0.00 in /  0 mm
08:33 16.7 °F /  -8.5 °C 14.0 °F /  -10 °C 30.43 in /  1030.4 hPa Calm   2.0 mph /  3.2 km/h 87 % 0.00 in /  0 mm
08:48 17.4 °F /  -8.1 °C 14.0 °F /  -10 °C 30.43 in /  1030.4 hPa Calm   3.0 mph /  4.8 km/h 87 % 0.00 in /  0 mm
09:03 18.4 °F /  -7.6 °C 15.0 °F /  -9.4 °C 30.43 in /  1030.4 hPa Calm   3.0 mph /  4.8 km/h 87 % 0.00 in /  0 mm
09:18 19.2 °F /  -7.1 °C 16.0 °F /  -8.9 °C 30.43 in /  1030.4 hPa NE 1.0 mph /  1.6 km/h 3.0 mph /  4.8 km/h 86 % 0.00 in /  0 mm
09:33 19.7 °F /  -6.8 °C 16.0 °F /  -8.9 °C 30.42 in /  1030 hPa Calm   3.0 mph /  4.8 km/h 85 % 0.00 in /  0 mm
09:48 20.1 °F /  -6.6 °C 16.0 °F /  -8.9 °C 30.41 in /  1029.7 hPa NE 2.0 mph /  3.2 km/h 3.0 mph /  4.8 km/h 83 % 0.00 in /  0 mm
10:04 21.2 °F /  -6 °C 17.0 °F /  -8.3 °C 30.42 in /  1030 hPa ENE 2.0 mph /  3.2 km/h 4.0 mph /  6.4 km/h 82 % 0.00 in /  0 mm
10:19 22.9 °F /  -5.1 °C 18.0 °F /  -7.8 °C 30.43 in /  1030.4 hPa Calm   2.0 mph /  3.2 km/h 81 % 0.00 in /  0 mm
10:34 23.2 °F /  -4.9 °C 17.0 °F /  -8.3 °C 30.44 in /  1030.7 hPa ENE 3.0 mph /  4.8 km/h 3.0 mph /  4.8 km/h 76 % 0.00 in /  0 mm
10:49 23.3 °F /  -4.8 °C 17.0 °F /  -8.3 °C 30.43 in /  1030.4 hPa ENE 1.0 mph /  1.6 km/h 3.0 mph /  4.8 km/h 76 % 0.01 in /  0.25 mm
11:04 24.2 °F /  -4.3 °C 17.0 °F /  -8.3 °C 30.43 in /  1030.4 hPa Calm   4.0 mph /  6.4 km/h 75 % 0.01 in /  0.25 mm
11:19 23.9 °F /  -4.5 °C 17.0 °F /  -8.3 °C 30.42 in /  1030 hPa ENE 4.0 mph /  6.4 km/h 4.0 mph /  6.4 km/h 74 % 0.01 in /  0.25 mm
11:34 24.1 °F /  -4.4 °C 17.0 °F /  -8.3 °C 30.41 in /  1029.7 hPa NE 1.0 mph /  1.6 km/h 5.0 mph /  8 km/h 73 % 0.01 in /  0.25 mm
11:49 23.9 °F /  -4.5 °C 16.0 °F /  -8.9 °C 30.40 in /  1029.3 hPa NNE 2.0 mph /  3.2 km/h 5.0 mph /  8 km/h 73 % 0.00 in /  0 mm
12:04 24.1 °F /  -4.4 °C 17.0 °F /  -8.3 °C 30.38 in /  1028.7 hPa ESE 2.0 mph /  3.2 km/h 6.0 mph /  9.7 km/h 74 % 0.00 in /  0 mm
12:19 23.1 °F /  -4.9 °C 16.0 °F /  -8.9 °C 30.37 in /  1028.3 hPa Calm   6.0 mph /  9.7 km/h 75 % 0.00 in /  0 mm
12:34 22.7 °F /  -5.2 °C 17.0 °F /  -8.3 °C 30.38 in /  1028.7 hPa ENE 1.0 mph /  1.6 km/h 5.0 mph /  8 km/h 78 % 0.00 in /  0 mm
12:49 22.7 °F /  -5.2 °C 17.0 °F /  -8.3 °C 30.38 in /  1028.7 hPa ENE 1.0 mph /  1.6 km/h 3.0 mph /  4.8 km/h 79 % 0.00 in /  0 mm
13:04 22.5 °F /  -5.3 °C 17.0 °F /  -8.3 °C 30.38 in /  1028.7 hPa ENE 2.0 mph /  3.2 km/h 4.0 mph /  6.4 km/h 80 % 0.00 in /  0 mm
13:19 22.4 °F /  -5.3 °C 17.0 °F /  -8.3 °C 30.37 in /  1028.3 hPa Calm   2.0 mph /  3.2 km/h 81 % 0.00 in /  0 mm
13:34 22.3 °F /  -5.4 °C 18.0 °F /  -7.8 °C 30.35 in /  1027.7 hPa ENE 4.0 mph /  6.4 km/h 4.0 mph /  6.4 km/h 82 % 0.00 in /  0 mm
13:49 22.2 °F /  -5.4 °C 18.0 °F /  -7.8 °C 30.34 in /  1027.3 hPa ENE 2.0 mph /  3.2 km/h 4.0 mph /  6.4 km/h 84 % 0.00 in /  0 mm
14:04 22.2 °F /  -5.4 °C 18.0 °F /  -7.8 °C 30.33 in /  1027 hPa East 1.0 mph /  1.6 km/h 3.0 mph /  4.8 km/h 85 % 0.00 in /  0 mm
14:19 22.3 °F /  -5.4 °C 19.0 °F /  -7.2 °C 30.32 in /  1026.6 hPa ENE 2.0 mph /  3.2 km/h 5.0 mph /  8 km/h 85 % 0.00 in /  0 mm
14:34 22.6 °F /  -5.2 °C 19.0 °F /  -7.2 °C 30.31 in /  1026.3 hPa ENE 3.0 mph /  4.8 km/h 4.0 mph /  6.4 km/h 85 % 0.00 in /  0 mm
14:49 23.1 °F /  -4.9 °C 19.0 °F /  -7.2 °C 30.32 in /  1026.6 hPa ENE 4.0 mph /  6.4 km/h 5.0 mph /  8 km/h 83 % 0.00 in /  0 mm
15:04 23.1 °F /  -4.9 °C 19.0 °F /  -7.2 °C 30.31 in /  1026.3 hPa ENE 3.0 mph /  4.8 km/h 5.0 mph /  8 km/h 83 % 0.00 in /  0 mm
15:26 22.9 °F /  -5.1 °C 19.0 °F /  -7.2 °C 30.30 in /  1026 hPa East 2.0 mph /  3.2 km/h 4.0 mph /  6.4 km/h 83 % 0.00 in /  0 mm
15:34 22.8 °F /  -5.1 °C 19.0 °F /  -7.2 °C 30.29 in /  1025.6 hPa ENE 3.0 mph /  4.8 km/h 4.0 mph /  6.4 km/h 84 % 0.00 in /  0 mm
15:49 22.7 °F /  -5.2 °C 19.0 °F /  -7.2 °C 30.29 in /  1025.6 hPa Calm   5.0 mph /  8 km/h 84 % 0.00 in /  0 mm
16:04 22.5 °F /  -5.3 °C 18.0 °F /  -7.8 °C 30.30 in /  1026 hPa East 1.0 mph /  1.6 km/h 6.0 mph /  9.7 km/h 84 % 0.00 in /  0 mm
16:19 22.4 °F /  -5.3 °C 18.0 °F /  -7.8 °C 30.30 in /  1026 hPa ENE 1.0 mph /  1.6 km/h 3.0 mph /  4.8 km/h 84 % 0.00 in /  0 mm
16:34 22.1 °F /  -5.5 °C 18.0 °F /  -7.8 °C 30.30 in /  1026 hPa ENE 1.0 mph /  1.6 km/h 4.0 mph /  6.4 km/h 84 % 0.00 in /  0 mm
16:49 21.8 °F /  -5.7 °C 18.0 °F /  -7.8 °C 30.29 in /  1025.6 hPa ENE 4.0 mph /  6.4 km/h 4.0 mph /  6.4 km/h 84 % 0.00 in /  0 mm
17:04 21.5 °F /  -5.8 °C 18.0 °F /  -7.8 °C 30.29 in /  1025.6 hPa ENE 4.0 mph /  6.4 km/h 8.0 mph /  12.9 km/h 85 % 0.00 in /  0 mm
17:19 21.2 °F /  -6 °C 18.0 °F /  -7.8 °C 30.29 in /  1025.6 hPa ENE 2.0 mph /  3.2 km/h 4.0 mph /  6.4 km/h 86 % 0.00 in /  0 mm
17:34 20.9 °F /  -6.2 °C 17.0 °F /  -8.3 °C 30.29 in /  1025.6 hPa NE 4.0 mph /  6.4 km/h 7.0 mph /  11.3 km/h 86 % 0.00 in /  0 mm
17:49 20.7 °F /  -6.3 °C 17.0 °F /  -8.3 °C 30.28 in /  1025.3 hPa NE 3.0 mph /  4.8 km/h 4.0 mph /  6.4 km/h 87 % 0.00 in /  0 mm
18:04 20.6 °F /  -6.3 °C 18.0 °F /  -7.8 °C 30.27 in /  1024.9 hPa ENE 1.0 mph /  1.6 km/h 5.0 mph /  8 km/h 88 % 0.00 in /  0 mm
18:34 20.4 °F /  -6.4 °C 17.0 °F /  -8.3 °C 30.26 in /  1024.6 hPa ENE 1.0 mph /  1.6 km/h 8.0 mph /  12.9 km/h 88 % 0.00 in /  0 mm
18:49 20.4 °F /  -6.4 °C 17.0 °F /  -8.3 °C 30.26 in /  1024.6 hPa ENE 3.0 mph /  4.8 km/h 7.0 mph /  11.3 km/h 88 % 0.00 in /  0 mm
19:04 20.3 °F /  -6.5 °C 18.0 °F /  -7.8 °C 30.25 in /  1024.3 hPa ESE 2.0 mph /  3.2 km/h 4.0 mph /  6.4 km/h 89 % 0.00 in /  0 mm
19:19 20.4 °F /  -6.4 °C 18.0 °F /  -7.8 °C 30.25 in /  1024.3 hPa ESE 3.0 mph /  4.8 km/h 6.0 mph /  9.7 km/h 89 % 0.00 in /  0 mm
19:34 20.3 °F /  -6.5 °C 18.0 °F /  -7.8 °C 30.24 in /  1023.9 hPa NE 2.0 mph /  3.2 km/h 6.0 mph /  9.7 km/h 89 % 0.00 in /  0 mm
19:49 20.3 °F /  -6.5 °C 18.0 °F /  -7.8 °C 30.24 in /  1023.9 hPa NE 2.0 mph /  3.2 km/h 3.0 mph /  4.8 km/h 89 % 0.00 in /  0 mm
20:04 20.0 °F /  -6.7 °C 17.0 °F /  -8.3 °C 30.23 in /  1023.6 hPa NE 3.0 mph /  4.8 km/h 4.0 mph /  6.4 km/h 89 % 0.00 in /  0 mm
20:20 19.7 °F /  -6.8 °C 17.0 °F /  -8.3 °C 30.22 in /  1023.2 hPa Calm   6.0 mph /  9.7 km/h 89 % 0.00 in /  0 mm
20:35 19.7 °F /  -6.8 °C 17.0 °F /  -8.3 °C 30.22 in /  1023.2 hPa ENE 2.0 mph /  3.2 km/h 7.0 mph /  11.3 km/h 89 % 0.00 in /  0 mm
20:50 19.7 °F /  -6.8 °C 17.0 °F /  -8.3 °C 30.22 in /  1023.2 hPa ENE 3.0 mph /  4.8 km/h 5.0 mph /  8 km/h 89 % 0.00 in /  0 mm
21:05 19.6 °F /  -6.9 °C 17.0 °F /  -8.3 °C 30.22 in /  1023.2 hPa NE 2.0 mph /  3.2 km/h 7.0 mph /  11.3 km/h 89 % 0.00 in /  0 mm
21:20 19.6 °F /  -6.9 °C 17.0 °F /  -8.3 °C 30.22 in /  1023.2 hPa ENE 2.0 mph /  3.2 km/h 6.0 mph /  9.7 km/h 89 % 0.00 in /  0 mm
21:35 19.6 °F /  -6.9 °C 17.0 °F /  -8.3 °C 30.22 in /  1023.2 hPa ENE 2.0 mph /  3.2 km/h 4.0 mph /  6.4 km/h 89 % 0.00 in /  0 mm
21:50 19.6 °F /  -6.9 °C 17.0 °F /  -8.3 °C 30.21 in /  1022.9 hPa NE 3.0 mph /  4.8 km/h 5.0 mph /  8 km/h 89 % 0.00 in /  0 mm
22:05 19.6 °F /  -6.9 °C 17.0 °F /  -8.3 °C 30.21 in /  1022.9 hPa ENE 1.0 mph /  1.6 km/h 6.0 mph /  9.7 km/h 89 % 0.00 in /  0 mm
22:20 19.5 °F /  -6.9 °C 17.0 °F /  -8.3 °C 30.21 in /  1022.9 hPa NE 2.0 mph /  3.2 km/h 8.0 mph /  12.9 km/h 89 % 0.00 in /  0 mm
22:35 19.4 °F /  -7 °C 17.0 °F /  -8.3 °C 30.21 in /  1022.9 hPa NE 1.0 mph /  1.6 km/h 6.0 mph /  9.7 km/h 89 % 0.00 in /  0 mm
22:50 19.3 °F /  -7.1 °C 17.0 °F /  -8.3 °C 30.20 in /  1022.6 hPa ENE 3.0 mph /  4.8 km/h 7.0 mph /  11.3 km/h 89 % 0.00 in /  0 mm
23:05 19.1 °F /  -7.2 °C 16.0 °F /  -8.9 °C 30.20 in /  1022.6 hPa ENE 3.0 mph /  4.8 km/h 9.0 mph /  14.5 km/h 89 % 0.00 in /  0 mm
23:20 18.9 °F /  -7.3 °C 16.0 °F /  -8.9 °C 30.20 in /  1022.6 hPa ENE 1.0 mph /  1.6 km/h 7.0 mph /  11.3 km/h 89 % 0.00 in /  0 mm
23:35 18.7 °F /  -7.4 °C 16.0 °F /  -8.9 °C 30.20 in /  1022.6 hPa ENE 3.0 mph /  4.8 km/h 6.0 mph /  9.7 km/h 89 % 0.00 in /  0 mm
23:50 18.5 °F /  -7.5 °C 16.0 °F /  -8.9 °C 30.18 in /  1021.9 hPa ESE 1.0 mph /  1.6 km/h 9.0 mph /  14.5 km/h 89 % 0.00 in /  0 mm
Des Moines Weather and Climate
Compliments of Weather Underground - 3 mb

Script developed by  Jim McMurry - jmcmurry@mwt.net Adapted for the template by  Wim van der Kuil - Leuven-Template.eu

You find our weather info also at:

Weather Underground

Equipment we use:

Weather-station
Davis VP2 Plus

Weather-program
Davis Weatherlink.Com

Weather-server
iMac (Retina 4K, 21.5-inch, Late 2015)

Provider
Hostmonster.com

Davis VP2 Plus

Davis Weatherlink.Com

iMac (Retina 4K, 21.5-inch, Late 2015)

Hostmonster.com